sensor_id;sensor_type;location;lat;lon;timestamp;temperature;humidity
41630;DHT22;27322;49.488;8.480;2023-04-15T00:00:06;9.30;99.90
41630;DHT22;27322;49.488;8.480;2023-04-15T00:02:32;9.20;99.90
41630;DHT22;27322;49.488;8.480;2023-04-15T00:04:58;9.20;99.90
41630;DHT22;27322;49.488;8.480;2023-04-15T00:07:23;9.20;99.90
41630;DHT22;27322;49.488;8.480;2023-04-15T00:09:49;9.20;99.90
41630;DHT22;27322;49.488;8.480;2023-04-15T00:12:18;9.20;99.90
41630;DHT22;27322;49.488;8.480;2023-04-15T00:14:44;9.20;99.90
41630;DHT22;27322;49.488;8.480;2023-04-15T00:17:09;9.10;99.90
41630;DHT22;27322;49.488;8.480;2023-04-15T00:19:35;9.10;99.90
41630;DHT22;27322;49.488;8.480;2023-04-15T00:22:01;9.10;99.90
41630;DHT22;27322;49.488;8.480;2023-04-15T00:24:26;9.10;99.90
41630;DHT22;27322;49.488;8.480;2023-04-15T00:26:52;9.00;99.90
41630;DHT22;27322;49.488;8.480;2023-04-15T00:29:18;9.00;99.90
41630;DHT22;27322;49.488;8.480;2023-04-15T00:31:43;9.00;99.90
41630;DHT22;27322;49.488;8.480;2023-04-15T00:34:09;9.00;99.90
41630;DHT22;27322;49.488;8.480;2023-04-15T00:36:35;8.90;99.90
41630;DHT22;27322;49.488;8.480;2023-04-15T00:39:00;8.90;99.90
41630;DHT22;27322;49.488;8.480;2023-04-15T00:41:27;8.90;99.90
41630;DHT22;27322;49.488;8.480;2023-04-15T00:43:53;8.90;99.90
41630;DHT22;27322;49.488;8.480;2023-04-15T00:46:19;8.90;99.90
41630;DHT22;27322;49.488;8.480;2023-04-15T00:48:46;8.80;99.90
41630;DHT22;27322;49.488;8.480;2023-04-15T00:51:12;8.80;99.90
41630;DHT22;27322;49.488;8.480;2023-04-15T00:53:39;8.90;99.90
41630;DHT22;27322;49.488;8.480;2023-04-15T00:56:05;8.90;99.90
41630;DHT22;27322;49.488;8.480;2023-04-15T00:58:31;8.90;99.90
41630;DHT22;27322;49.488;8.480;2023-04-15T01:00:57;8.90;99.90
41630;DHT22;27322;49.488;8.480;2023-04-15T01:03:24;8.90;99.90
41630;DHT22;27322;49.488;8.480;2023-04-15T01:05:50;8.90;99.90
41630;DHT22;27322;49.488;8.480;2023-04-15T01:08:26;8.90;99.90
41630;DHT22;27322;49.488;8.480;2023-04-15T01:10:53;8.90;99.90
41630;DHT22;27322;49.488;8.480;2023-04-15T01:13:19;8.90;99.90
41630;DHT22;27322;49.488;8.480;2023-04-15T01:15:46;8.90;99.90
41630;DHT22;27322;49.488;8.480;2023-04-15T01:18:12;8.90;99.90
41630;DHT22;27322;49.488;8.480;2023-04-15T01:20:38;8.90;99.90
41630;DHT22;27322;49.488;8.480;2023-04-15T01:23:04;8.90;99.90
41630;DHT22;27322;49.488;8.480;2023-04-15T01:25:31;8.90;99.90
41630;DHT22;27322;49.488;8.480;2023-04-15T01:28:00;8.80;99.90
41630;DHT22;27322;49.488;8.480;2023-04-15T01:30:26;8.80;99.90
41630;DHT22;27322;49.488;8.480;2023-04-15T01:32:52;8.80;99.90
41630;DHT22;27322;49.488;8.480;2023-04-15T01:35:18;8.70;99.90
41630;DHT22;27322;49.488;8.480;2023-04-15T01:37:44;8.70;99.90
41630;DHT22;27322;49.488;8.480;2023-04-15T01:40:10;8.70;99.90
41630;DHT22;27322;49.488;8.480;2023-04-15T01:42:36;8.60;99.90
41630;DHT22;27322;49.488;8.480;2023-04-15T01:45:03;8.60;99.90
41630;DHT22;27322;49.488;8.480;2023-04-15T01:47:28;8.60;99.90
41630;DHT22;27322;49.488;8.480;2023-04-15T01:49:54;8.60;99.90
41630;DHT22;27322;49.488;8.480;2023-04-15T01:52:20;8.50;99.90
41630;DHT22;27322;49.488;8.480;2023-04-15T01:54:45;8.50;99.90
41630;DHT22;27322;49.488;8.480;2023-04-15T01:57:11;8.50;99.90
41630;DHT22;27322;49.488;8.480;2023-04-15T01:59:37;8.50;99.90
41630;DHT22;27322;49.488;8.480;2023-04-15T02:02:03;8.50;99.90
41630;DHT22;27322;49.488;8.480;2023-04-15T02:04:29;8.50;99.90
41630;DHT22;27322;49.488;8.480;2023-04-15T02:06:54;8.40;99.90
41630;DHT22;27322;49.488;8.480;2023-04-15T02:09:21;8.40;99.90
41630;DHT22;27322;49.488;8.480;2023-04-15T02:11:46;8.30;99.90
41630;DHT22;27322;49.488;8.480;2023-04-15T02:14:12;8.30;99.90
41630;DHT22;27322;49.488;8.480;2023-04-15T02:16:38;8.30;99.90
41630;DHT22;27322;49.488;8.480;2023-04-15T02:19:04;8.30;99.90
41630;DHT22;27322;49.488;8.480;2023-04-15T02:21:30;8.30;99.90
41630;DHT22;27322;49.488;8.480;2023-04-15T02:23:56;8.20;99.90
41630;DHT22;27322;49.488;8.480;2023-04-15T02:26:22;8.20;99.90
41630;DHT22;27322;49.488;8.480;2023-04-15T02:28:48;8.30;99.90
41630;DHT22;27322;49.488;8.480;2023-04-15T02:31:15;8.20;99.90
41630;DHT22;27322;49.488;8.480;2023-04-15T02:33:41;8.20;99.90
41630;DHT22;27322;49.488;8.480;2023-04-15T02:36:07;8.30;99.90
41630;DHT22;27322;49.488;8.480;2023-04-15T02:38:34;8.20;99.90
41630;DHT22;27322;49.488;8.480;2023-04-15T02:41:00;8.20;99.90
41630;DHT22;27322;49.488;8.480;2023-04-15T02:43:25;8.20;99.90
41630;DHT22;27322;49.488;8.480;2023-04-15T02:45:51;8.20;99.90
41630;DHT22;27322;49.488;8.480;2023-04-15T02:48:17;8.10;99.90
41630;DHT22;27322;49.488;8.480;2023-04-15T02:50:45;8.10;99.90
41630;DHT22;27322;49.488;8.480;2023-04-15T02:53:11;8.10;99.90
41630;DHT22;27322;49.488;8.480;2023-04-15T02:55:37;8.00;99.90
41630;DHT22;27322;49.488;8.480;2023-04-15T02:58:03;8.00;99.90
41630;DHT22;27322;49.488;8.480;2023-04-15T03:00:29;8.00;99.90
41630;DHT22;27322;49.488;8.480;2023-04-15T03:03:00;8.00;99.90
41630;DHT22;27322;49.488;8.480;2023-04-15T03:05:26;8.00;99.90
41630;DHT22;27322;49.488;8.480;2023-04-15T03:07:52;7.90;99.90
41630;DHT22;27322;49.488;8.480;2023-04-15T03:10:18;7.90;99.90
41630;DHT22;27322;49.488;8.480;2023-04-15T03:12:43;7.90;99.90
41630;DHT22;27322;49.488;8.480;2023-04-15T03:15:09;7.90;99.90
41630;DHT22;27322;49.488;8.480;2023-04-15T03:17:35;7.90;99.90
41630;DHT22;27322;49.488;8.480;2023-04-15T03:20:01;7.90;99.90
41630;DHT22;27322;49.488;8.480;2023-04-15T03:22:28;7.90;99.90
41630;DHT22;27322;49.488;8.480;2023-04-15T03:24:53;7.90;99.90
41630;DHT22;27322;49.488;8.480;2023-04-15T03:27:19;7.90;99.90
41630;DHT22;27322;49.488;8.480;2023-04-15T03:29:45;7.90;99.90
41630;DHT22;27322;49.488;8.480;2023-04-15T03:32:10;7.90;99.90
41630;DHT22;27322;49.488;8.480;2023-04-15T03:34:37;7.90;99.90
41630;DHT22;27322;49.488;8.480;2023-04-15T03:37:03;7.90;99.90
41630;DHT22;27322;49.488;8.480;2023-04-15T03:39:28;7.90;99.90
41630;DHT22;27322;49.488;8.480;2023-04-15T03:41:54;7.80;99.90
41630;DHT22;27322;49.488;8.480;2023-04-15T03:44:20;7.80;99.90
41630;DHT22;27322;49.488;8.480;2023-04-15T03:46:46;7.80;99.90
41630;DHT22;27322;49.488;8.480;2023-04-15T03:49:12;7.80;99.90
41630;DHT22;27322;49.488;8.480;2023-04-15T03:51:38;7.80;99.90
41630;DHT22;27322;49.488;8.480;2023-04-15T03:54:04;7.80;99.90
41630;DHT22;27322;49.488;8.480;2023-04-15T03:56:30;7.70;99.90
41630;DHT22;27322;49.488;8.480;2023-04-15T03:58:55;7.70;99.90
41630;DHT22;27322;49.488;8.480;2023-04-15T04:01:22;7.70;99.90
41630;DHT22;27322;49.488;8.480;2023-04-15T04:03:47;7.80;99.90
41630;DHT22;27322;49.488;8.480;2023-04-15T04:06:14;7.80;99.90
41630;DHT22;27322;49.488;8.480;2023-04-15T04:08:40;7.80;99.90
41630;DHT22;27322;49.488;8.480;2023-04-15T04:11:05;7.80;99.90
41630;DHT22;27322;49.488;8.480;2023-04-15T04:13:31;7.80;99.90
41630;DHT22;27322;49.488;8.480;2023-04-15T04:15:56;7.80;99.90
41630;DHT22;27322;49.488;8.480;2023-04-15T04:18:22;7.80;99.90
41630;DHT22;27322;49.488;8.480;2023-04-15T04:20:48;7.90;99.90
41630;DHT22;27322;49.488;8.480;2023-04-15T04:23:13;7.90;99.90
41630;DHT22;27322;49.488;8.480;2023-04-15T04:25:39;7.90;99.90
41630;DHT22;27322;49.488;8.480;2023-04-15T04:28:04;7.90;99.90
41630;DHT22;27322;49.488;8.480;2023-04-15T04:30:30;7.90;99.90
41630;DHT22;27322;49.488;8.480;2023-04-15T04:32:55;7.90;99.90
41630;DHT22;27322;49.488;8.480;2023-04-15T04:35:21;7.90;99.90
41630;DHT22;27322;49.488;8.480;2023-04-15T04:37:47;7.90;99.90
41630;DHT22;27322;49.488;8.480;2023-04-15T04:40:12;8.00;99.90
41630;DHT22;27322;49.488;8.480;2023-04-15T04:42:38;7.90;99.90
41630;DHT22;27322;49.488;8.480;2023-04-15T04:45:04;7.90;99.90
41630;DHT22;27322;49.488;8.480;2023-04-15T04:47:30;7.90;99.90
41630;DHT22;27322;49.488;8.480;2023-04-15T04:49:55;7.90;99.90
41630;DHT22;27322;49.488;8.480;2023-04-15T04:52:21;7.90;99.90
41630;DHT22;27322;49.488;8.480;2023-04-15T04:54:47;7.90;99.90
41630;DHT22;27322;49.488;8.480;2023-04-15T04:57:12;7.90;99.90
41630;DHT22;27322;49.488;8.480;2023-04-15T04:59:38;7.90;99.90
41630;DHT22;27322;49.488;8.480;2023-04-15T05:02:04;7.90;99.90
41630;DHT22;27322;49.488;8.480;2023-04-15T05:04:29;7.90;99.90
41630;DHT22;27322;49.488;8.480;2023-04-15T05:06:56;7.90;99.90
41630;DHT22;27322;49.488;8.480;2023-04-15T05:09:22;7.90;99.90
41630;DHT22;27322;49.488;8.480;2023-04-15T05:11:48;7.90;99.90
41630;DHT22;27322;49.488;8.480;2023-04-15T05:14:13;7.90;99.90
41630;DHT22;27322;49.488;8.480;2023-04-15T05:16:39;7.90;99.90
41630;DHT22;27322;49.488;8.480;2023-04-15T05:19:05;7.90;99.90
41630;DHT22;27322;49.488;8.480;2023-04-15T05:21:30;7.80;99.90
41630;DHT22;27322;49.488;8.480;2023-04-15T05:23:56;7.80;99.90
41630;DHT22;27322;49.488;8.480;2023-04-15T05:26:22;7.80;99.90
41630;DHT22;27322;49.488;8.480;2023-04-15T05:28:48;7.80;99.90
41630;DHT22;27322;49.488;8.480;2023-04-15T05:31:14;7.80;99.90
41630;DHT22;27322;49.488;8.480;2023-04-15T05:33:40;7.80;99.90
41630;DHT22;27322;49.488;8.480;2023-04-15T05:36:09;7.80;99.90
41630;DHT22;27322;49.488;8.480;2023-04-15T05:38:34;7.80;99.90
41630;DHT22;27322;49.488;8.480;2023-04-15T05:41:00;7.80;99.90
41630;DHT22;27322;49.488;8.480;2023-04-15T05:43:25;7.90;99.90
41630;DHT22;27322;49.488;8.480;2023-04-15T05:45:51;7.90;99.90
41630;DHT22;27322;49.488;8.480;2023-04-15T05:48:16;8.00;99.90
41630;DHT22;27322;49.488;8.480;2023-04-15T05:50:42;8.00;99.90
41630;DHT22;27322;49.488;8.480;2023-04-15T05:53:08;8.00;99.90
41630;DHT22;27322;49.488;8.480;2023-04-15T05:55:34;8.10;99.90
41630;DHT22;27322;49.488;8.480;2023-04-15T05:58:00;8.10;99.90
41630;DHT22;27322;49.488;8.480;2023-04-15T06:00:25;8.10;99.90
41630;DHT22;27322;49.488;8.480;2023-04-15T06:02:51;8.10;99.90
41630;DHT22;27322;49.488;8.480;2023-04-15T06:05:17;8.10;99.90
41630;DHT22;27322;49.488;8.480;2023-04-15T06:07:43;8.20;99.90
41630;DHT22;27322;49.488;8.480;2023-04-15T06:10:09;8.20;99.90
41630;DHT22;27322;49.488;8.480;2023-04-15T06:12:35;8.20;99.90
41630;DHT22;27322;49.488;8.480;2023-04-15T06:15:01;8.30;99.90
41630;DHT22;27322;49.488;8.480;2023-04-15T06:17:27;8.30;99.90
41630;DHT22;27322;49.488;8.480;2023-04-15T06:19:52;8.30;99.90
41630;DHT22;27322;49.488;8.480;2023-04-15T06:22:21;8.40;99.90
41630;DHT22;27322;49.488;8.480;2023-04-15T06:24:48;8.40;99.90
41630;DHT22;27322;49.488;8.480;2023-04-15T06:27:15;8.40;99.90
41630;DHT22;27322;49.488;8.480;2023-04-15T06:29:43;8.50;99.90
41630;DHT22;27322;49.488;8.480;2023-04-15T06:32:09;8.50;99.90
41630;DHT22;27322;49.488;8.480;2023-04-15T06:34:36;8.50;99.90
41630;DHT22;27322;49.488;8.480;2023-04-15T06:37:01;8.60;99.90
41630;DHT22;27322;49.488;8.480;2023-04-15T06:39:27;8.60;99.90
41630;DHT22;27322;49.488;8.480;2023-04-15T06:41:53;8.70;99.90
41630;DHT22;27322;49.488;8.480;2023-04-15T06:44:18;8.70;99.90
41630;DHT22;27322;49.488;8.480;2023-04-15T06:46:44;8.80;99.90
41630;DHT22;27322;49.488;8.480;2023-04-15T06:49:10;8.90;99.90
41630;DHT22;27322;49.488;8.480;2023-04-15T06:51:36;8.90;99.90
41630;DHT22;27322;49.488;8.480;2023-04-15T06:54:02;9.00;99.90
41630;DHT22;27322;49.488;8.480;2023-04-15T06:56:31;9.10;99.90
41630;DHT22;27322;49.488;8.480;2023-04-15T06:58:56;9.20;99.90
41630;DHT22;27322;49.488;8.480;2023-04-15T07:01:22;9.20;99.90
41630;DHT22;27322;49.488;8.480;2023-04-15T07:03:48;9.30;99.90
41630;DHT22;27322;49.488;8.480;2023-04-15T07:06:13;9.40;99.90
41630;DHT22;27322;49.488;8.480;2023-04-15T07:08:39;9.40;99.90
41630;DHT22;27322;49.488;8.480;2023-04-15T07:11:05;9.50;99.90
41630;DHT22;27322;49.488;8.480;2023-04-15T07:13:31;9.50;99.90
41630;DHT22;27322;49.488;8.480;2023-04-15T07:15:57;9.60;99.90
41630;DHT22;27322;49.488;8.480;2023-04-15T07:18:22;9.70;99.90
41630;DHT22;27322;49.488;8.480;2023-04-15T07:20:48;9.70;99.90
41630;DHT22;27322;49.488;8.480;2023-04-15T07:23:14;9.80;99.90
41630;DHT22;27322;49.488;8.480;2023-04-15T07:25:39;9.80;99.90
41630;DHT22;27322;49.488;8.480;2023-04-15T07:28:05;9.90;99.90
41630;DHT22;27322;49.488;8.480;2023-04-15T07:30:31;9.90;99.90
41630;DHT22;27322;49.488;8.480;2023-04-15T07:32:57;9.90;99.90
41630;DHT22;27322;49.488;8.480;2023-04-15T07:35:23;10.00;99.90
41630;DHT22;27322;49.488;8.480;2023-04-15T07:37:50;10.00;99.90
41630;DHT22;27322;49.488;8.480;2023-04-15T07:40:16;10.00;99.90
41630;DHT22;27322;49.488;8.480;2023-04-15T07:42:42;10.00;99.90
41630;DHT22;27322;49.488;8.480;2023-04-15T07:45:09;10.00;99.90
41630;DHT22;27322;49.488;8.480;2023-04-15T07:47:34;10.10;99.90
41630;DHT22;27322;49.488;8.480;2023-04-15T07:50:01;10.20;99.90
41630;DHT22;27322;49.488;8.480;2023-04-15T07:52:27;10.20;99.90
41630;DHT22;27322;49.488;8.480;2023-04-15T07:54:52;10.20;99.90
41630;DHT22;27322;49.488;8.480;2023-04-15T07:57:18;10.20;99.90
41630;DHT22;27322;49.488;8.480;2023-04-15T07:59:44;10.30;99.90
41630;DHT22;27322;49.488;8.480;2023-04-15T08:02:10;10.30;99.90
41630;DHT22;27322;49.488;8.480;2023-04-15T08:04:36;10.30;99.90
41630;DHT22;27322;49.488;8.480;2023-04-15T08:07:02;10.30;99.90
41630;DHT22;27322;49.488;8.480;2023-04-15T08:09:29;10.30;99.90
41630;DHT22;27322;49.488;8.480;2023-04-15T08:11:55;10.40;99.90
41630;DHT22;27322;49.488;8.480;2023-04-15T08:14:21;10.40;99.90
41630;DHT22;27322;49.488;8.480;2023-04-15T08:16:47;10.50;99.90
41630;DHT22;27322;49.488;8.480;2023-04-15T08:19:12;10.60;99.90
41630;DHT22;27322;49.488;8.480;2023-04-15T08:21:38;10.70;99.90
41630;DHT22;27322;49.488;8.480;2023-04-15T08:24:05;10.90;99.90
41630;DHT22;27322;49.488;8.480;2023-04-15T08:26:31;10.90;99.90
41630;DHT22;27322;49.488;8.480;2023-04-15T08:28:57;11.10;99.90
41630;DHT22;27322;49.488;8.480;2023-04-15T08:31:25;11.20;99.90
41630;DHT22;27322;49.488;8.480;2023-04-15T08:33:51;11.30;99.90
41630;DHT22;27322;49.488;8.480;2023-04-15T08:36:16;11.40;99.90
41630;DHT22;27322;49.488;8.480;2023-04-15T08:38:43;11.40;99.90
41630;DHT22;27322;49.488;8.480;2023-04-15T08:41:20;11.50;99.90
41630;DHT22;27322;49.488;8.480;2023-04-15T08:43:57;11.50;99.90
41630;DHT22;27322;49.488;8.480;2023-04-15T08:46:23;11.50;99.90
41630;DHT22;27322;49.488;8.480;2023-04-15T08:48:49;11.60;99.90
41630;DHT22;27322;49.488;8.480;2023-04-15T08:51:16;11.60;99.90
41630;DHT22;27322;49.488;8.480;2023-04-15T08:53:43;11.70;99.90
41630;DHT22;27322;49.488;8.480;2023-04-15T08:56:11;11.70;99.90
41630;DHT22;27322;49.488;8.480;2023-04-15T08:58:38;11.80;99.90
41630;DHT22;27322;49.488;8.480;2023-04-15T09:01:04;11.80;99.90
41630;DHT22;27322;49.488;8.480;2023-04-15T09:03:31;11.90;99.90
41630;DHT22;27322;49.488;8.480;2023-04-15T09:05:56;11.90;99.90
41630;DHT22;27322;49.488;8.480;2023-04-15T09:08:23;11.90;99.90
41630;DHT22;27322;49.488;8.480;2023-04-15T09:10:48;12.00;99.90
41630;DHT22;27322;49.488;8.480;2023-04-15T09:13:14;12.20;99.90
41630;DHT22;27322;49.488;8.480;2023-04-15T09:15:40;12.30;99.90
41630;DHT22;27322;49.488;8.480;2023-04-15T09:18:06;12.30;99.90
41630;DHT22;27322;49.488;8.480;2023-04-15T09:20:41;12.30;99.90
41630;DHT22;27322;49.488;8.480;2023-04-15T09:23:14;12.40;99.90
41630;DHT22;27322;49.488;8.480;2023-04-15T09:25:40;12.50;99.90
41630;DHT22;27322;49.488;8.480;2023-04-15T09:28:09;12.50;99.90
41630;DHT22;27322;49.488;8.480;2023-04-15T09:30:36;12.50;99.90
41630;DHT22;27322;49.488;8.480;2023-04-15T09:33:02;12.60;99.90
41630;DHT22;27322;49.488;8.480;2023-04-15T09:35:33;12.70;99.90
41630;DHT22;27322;49.488;8.480;2023-04-15T09:38:07;12.80;99.90
41630;DHT22;27322;49.488;8.480;2023-04-15T09:40:38;12.90;99.90
41630;DHT22;27322;49.488;8.480;2023-04-15T09:43:05;13.00;99.90
41630;DHT22;27322;49.488;8.480;2023-04-15T09:45:32;13.10;99.90
41630;DHT22;27322;49.488;8.480;2023-04-15T09:48:14;13.20;99.90
41630;DHT22;27322;49.488;8.480;2023-04-15T09:50:41;13.20;99.90
41630;DHT22;27322;49.488;8.480;2023-04-15T09:53:14;13.30;99.90
41630;DHT22;27322;49.488;8.480;2023-04-15T09:55:44;13.20;99.90
41630;DHT22;27322;49.488;8.480;2023-04-15T09:58:27;13.30;99.90
41630;DHT22;27322;49.488;8.480;2023-04-15T10:00:54;13.30;99.90
41630;DHT22;27322;49.488;8.480;2023-04-15T10:03:22;13.30;99.90
41630;DHT22;27322;49.488;8.480;2023-04-15T10:05:49;13.40;99.90
41630;DHT22;27322;49.488;8.480;2023-04-15T10:08:19;13.40;99.90
41630;DHT22;27322;49.488;8.480;2023-04-15T10:10:47;13.50;99.90
41630;DHT22;27322;49.488;8.480;2023-04-15T10:13:14;13.50;99.90
41630;DHT22;27322;49.488;8.480;2023-04-15T10:15:44;13.50;99.90
41630;DHT22;27322;49.488;8.480;2023-04-15T10:18:15;13.50;99.90
41630;DHT22;27322;49.488;8.480;2023-04-15T10:20:42;13.50;99.90
41630;DHT22;27322;49.488;8.480;2023-04-15T10:23:11;13.50;99.90
41630;DHT22;27322;49.488;8.480;2023-04-15T10:25:37;13.60;99.90
41630;DHT22;27322;49.488;8.480;2023-04-15T10:28:05;13.60;99.90
41630;DHT22;27322;49.488;8.480;2023-04-15T10:30:32;13.60;99.90
41630;DHT22;27322;49.488;8.480;2023-04-15T10:32:59;13.60;99.90
41630;DHT22;27322;49.488;8.480;2023-04-15T10:35:26;13.60;99.90
41630;DHT22;27322;49.488;8.480;2023-04-15T10:37:52;13.50;99.90
41630;DHT22;27322;49.488;8.480;2023-04-15T10:40:31;13.50;99.90
41630;DHT22;27322;49.488;8.480;2023-04-15T10:43:01;13.50;99.90
41630;DHT22;27322;49.488;8.480;2023-04-15T10:45:35;13.50;99.90
41630;DHT22;27322;49.488;8.480;2023-04-15T10:48:03;13.50;99.90
41630;DHT22;27322;49.488;8.480;2023-04-15T10:50:30;13.50;99.90
41630;DHT22;27322;49.488;8.480;2023-04-15T10:52:57;13.60;99.90
41630;DHT22;27322;49.488;8.480;2023-04-15T10:55:30;13.70;99.90
41630;DHT22;27322;49.488;8.480;2023-04-15T10:58:00;13.70;99.90
41630;DHT22;27322;49.488;8.480;2023-04-15T11:00:28;13.70;99.90
41630;DHT22;27322;49.488;8.480;2023-04-15T11:05:50;13.70;99.90
41630;DHT22;27322;49.488;8.480;2023-04-15T11:08:16;13.70;99.90
41630;DHT22;27322;49.488;8.480;2023-04-15T11:15:41;13.60;96.80
41630;DHT22;27322;49.488;8.480;2023-04-15T11:20:36;13.60;96.60
41630;DHT22;27322;49.488;8.480;2023-04-15T11:23:03;13.60;96.80
41630;DHT22;27322;49.488;8.480;2023-04-15T11:25:31;13.50;97.40
41630;DHT22;27322;49.488;8.480;2023-04-15T11:27:59;13.50;97.50
41630;DHT22;27322;49.488;8.480;2023-04-15T11:30:27;13.50;98.10
41630;DHT22;27322;49.488;8.480;2023-04-15T11:32:56;13.50;97.40
41630;DHT22;27322;49.488;8.480;2023-04-15T11:35:22;13.50;96.80
41630;DHT22;27322;49.488;8.480;2023-04-15T11:37:48;13.50;96.50
41630;DHT22;27322;49.488;8.480;2023-04-15T11:40:14;13.50;96.70
41630;DHT22;27322;49.488;8.480;2023-04-15T11:42:42;13.60;95.60
41630;DHT22;27322;49.488;8.480;2023-04-15T11:45:10;13.50;95.80
41630;DHT22;27322;49.488;8.480;2023-04-15T11:47:37;13.50;96.50
41630;DHT22;27322;49.488;8.480;2023-04-15T11:52:59;13.50;97.20
41630;DHT22;27322;49.488;8.480;2023-04-15T11:55:26;13.50;97.30
41630;DHT22;27322;49.488;8.480;2023-04-15T11:58:23;13.40;98.00
41630;DHT22;27322;49.488;8.480;2023-04-15T12:00:57;13.40;98.70
41630;DHT22;27322;49.488;8.480;2023-04-15T12:03:29;13.40;98.60
41630;DHT22;27322;49.488;8.480;2023-04-15T12:16:23;13.50;97.80
41630;DHT22;27322;49.488;8.480;2023-04-15T12:18:53;13.50;97.70
41630;DHT22;27322;49.488;8.480;2023-04-15T12:21:22;13.50;98.00
41630;DHT22;27322;49.488;8.480;2023-04-15T12:23:52;13.50;97.70
41630;DHT22;27322;49.488;8.480;2023-04-15T12:26:29;13.60;96.30
41630;DHT22;27322;49.488;8.480;2023-04-15T12:31:28;13.50;96.60
41630;DHT22;27322;49.488;8.480;2023-04-15T12:33:59;13.50;97.00
41630;DHT22;27322;49.488;8.480;2023-04-15T12:36:33;13.50;97.30
41630;DHT22;27322;49.488;8.480;2023-04-15T12:39:03;13.50;97.40
41630;DHT22;27322;49.488;8.480;2023-04-15T12:41:30;13.50;97.00
41630;DHT22;27322;49.488;8.480;2023-04-15T12:43:55;13.40;96.70
41630;DHT22;27322;49.488;8.480;2023-04-15T12:46:21;13.50;95.10
41630;DHT22;27322;49.488;8.480;2023-04-15T12:48:47;13.40;95.60
41630;DHT22;27322;49.488;8.480;2023-04-15T12:51:14;13.40;94.30
41630;DHT22;27322;49.488;8.480;2023-04-15T12:53:39;13.50;90.80
41630;DHT22;27322;49.488;8.480;2023-04-15T12:56:05;13.40;90.00
41630;DHT22;27322;49.488;8.480;2023-04-15T12:58:31;13.40;90.50
41630;DHT22;27322;49.488;8.480;2023-04-15T13:00:57;13.40;90.40
41630;DHT22;27322;49.488;8.480;2023-04-15T13:03:23;13.50;90.00
41630;DHT22;27322;49.488;8.480;2023-04-15T13:05:48;13.50;86.50
41630;DHT22;27322;49.488;8.480;2023-04-15T13:08:14;13.40;86.60
41630;DHT22;27322;49.488;8.480;2023-04-15T13:10:40;13.50;81.90
41630;DHT22;27322;49.488;8.480;2023-04-15T13:13:07;13.50;82.80
41630;DHT22;27322;49.488;8.480;2023-04-15T13:15:33;13.50;83.70
41630;DHT22;27322;49.488;8.480;2023-04-15T13:17:58;13.50;81.40
41630;DHT22;27322;49.488;8.480;2023-04-15T13:20:24;13.60;82.20
41630;DHT22;27322;49.488;8.480;2023-04-15T13:22:51;13.60;83.60
41630;DHT22;27322;49.488;8.480;2023-04-15T13:25:17;13.60;84.10
41630;DHT22;27322;49.488;8.480;2023-04-15T13:27:42;13.50;84.90
41630;DHT22;27322;49.488;8.480;2023-04-15T13:30:08;13.60;86.00
41630;DHT22;27322;49.488;8.480;2023-04-15T13:32:34;13.50;85.60
41630;DHT22;27322;49.488;8.480;2023-04-15T13:35:00;13.60;86.60
41630;DHT22;27322;49.488;8.480;2023-04-15T13:37:29;13.60;88.50
41630;DHT22;27322;49.488;8.480;2023-04-15T13:39:55;13.70;87.20
41630;DHT22;27322;49.488;8.480;2023-04-15T13:42:22;13.70;88.50
41630;DHT22;27322;49.488;8.480;2023-04-15T13:44:49;13.70;89.00
41630;DHT22;27322;49.488;8.480;2023-04-15T13:47:16;13.70;90.40
41630;DHT22;27322;49.488;8.480;2023-04-15T13:49:42;13.70;90.40
41630;DHT22;27322;49.488;8.480;2023-04-15T13:52:08;13.70;90.10
41630;DHT22;27322;49.488;8.480;2023-04-15T13:54:33;13.70;90.90
41630;DHT22;27322;49.488;8.480;2023-04-15T13:56:59;13.70;91.50
41630;DHT22;27322;49.488;8.480;2023-04-15T13:59:26;13.70;91.60
41630;DHT22;27322;49.488;8.480;2023-04-15T14:01:51;13.80;91.10
41630;DHT22;27322;49.488;8.480;2023-04-15T14:04:17;13.70;91.90
41630;DHT22;27322;49.488;8.480;2023-04-15T14:06:43;13.80;91.90
41630;DHT22;27322;49.488;8.480;2023-04-15T14:09:09;13.80;92.70
41630;DHT22;27322;49.488;8.480;2023-04-15T14:11:36;13.90;92.50
41630;DHT22;27322;49.488;8.480;2023-04-15T14:14:02;13.80;92.70
41630;DHT22;27322;49.488;8.480;2023-04-15T14:16:28;13.80;93.60
41630;DHT22;27322;49.488;8.480;2023-04-15T14:18:53;13.80;94.80
41630;DHT22;27322;49.488;8.480;2023-04-15T14:21:19;13.70;95.30
41630;DHT22;27322;49.488;8.480;2023-04-15T14:23:45;13.70;96.10
41630;DHT22;27322;49.488;8.480;2023-04-15T14:26:11;13.70;97.30
41630;DHT22;27322;49.488;8.480;2023-04-15T14:28:38;13.70;97.90
41630;DHT22;27322;49.488;8.480;2023-04-15T14:31:03;13.60;99.40
41630;DHT22;27322;49.488;8.480;2023-04-15T14:33:29;13.50;99.90
41630;DHT22;27322;49.488;8.480;2023-04-15T14:35:55;13.50;99.90
41630;DHT22;27322;49.488;8.480;2023-04-15T14:38:20;13.40;99.90
41630;DHT22;27322;49.488;8.480;2023-04-15T14:40:47;13.40;99.90
41630;DHT22;27322;49.488;8.480;2023-04-15T14:43:12;13.30;99.90
41630;DHT22;27322;49.488;8.480;2023-04-15T14:45:38;13.30;99.90
41630;DHT22;27322;49.488;8.480;2023-04-15T14:48:04;13.30;99.90
41630;DHT22;27322;49.488;8.480;2023-04-15T14:50:30;13.30;99.90
41630;DHT22;27322;49.488;8.480;2023-04-15T14:52:57;13.20;99.90
41630;DHT22;27322;49.488;8.480;2023-04-15T14:55:22;13.20;99.90
41630;DHT22;27322;49.488;8.480;2023-04-15T14:57:48;13.20;99.90
41630;DHT22;27322;49.488;8.480;2023-04-15T15:00:14;13.20;99.90
41630;DHT22;27322;49.488;8.480;2023-04-15T15:02:39;13.10;99.90
41630;DHT22;27322;49.488;8.480;2023-04-15T15:05:09;13.10;99.90
41630;DHT22;27322;49.488;8.480;2023-04-15T15:07:35;13.10;99.90
41630;DHT22;27322;49.488;8.480;2023-04-15T15:10:04;13.00;99.90
41630;DHT22;27322;49.488;8.480;2023-04-15T15:12:31;13.00;99.90
41630;DHT22;27322;49.488;8.480;2023-04-15T15:14:57;12.90;99.90
41630;DHT22;27322;49.488;8.480;2023-04-15T15:17:22;12.80;99.90
41630;DHT22;27322;49.488;8.480;2023-04-15T15:19:48;12.80;99.90
41630;DHT22;27322;49.488;8.480;2023-04-15T15:22:13;12.80;99.90
41630;DHT22;27322;49.488;8.480;2023-04-15T15:24:39;12.70;99.90
41630;DHT22;27322;49.488;8.480;2023-04-15T15:27:05;12.70;99.90
41630;DHT22;27322;49.488;8.480;2023-04-15T15:29:30;12.70;99.90
41630;DHT22;27322;49.488;8.480;2023-04-15T15:31:56;12.70;99.90
41630;DHT22;27322;49.488;8.480;2023-04-15T15:34:22;12.70;99.90
41630;DHT22;27322;49.488;8.480;2023-04-15T15:36:47;12.70;99.90
41630;DHT22;27322;49.488;8.480;2023-04-15T15:39:13;12.60;99.90
41630;DHT22;27322;49.488;8.480;2023-04-15T15:41:38;12.60;99.90
41630;DHT22;27322;49.488;8.480;2023-04-15T15:44:04;12.60;99.90
41630;DHT22;27322;49.488;8.480;2023-04-15T15:46:30;12.60;99.90
41630;DHT22;27322;49.488;8.480;2023-04-15T15:48:56;12.60;99.90
41630;DHT22;27322;49.488;8.480;2023-04-15T15:51:22;12.50;99.90
41630;DHT22;27322;49.488;8.480;2023-04-15T15:53:48;12.50;99.90
41630;DHT22;27322;49.488;8.480;2023-04-15T15:56:14;12.50;99.90
41630;DHT22;27322;49.488;8.480;2023-04-15T15:58:40;12.40;99.90